Time;durP1;ratioP1;P1;durP2;ratioP2;P2;SDS_P1;SDS_P2;PMS_P1;PMS_P2;Temp;Humidity;BMP_temperature;BMP_pressure;BME280_temperature;BME280_humidity;BME280_pressure;Samples;Min_cycle;Max_cycle;Signal;HPM_P1;HPM_P2
2021/01/30 00:01:44;;;;;;;9.25;6.15;;;22.40;35.10;;;;;;5049766;28;20892;-60
2021/01/30 00:04:15;;;;;;;8.07;6.18;;;22.50;35.00;;;;;;5048711;28;20938;-61
2021/01/30 00:06:49;;;;;;;7.63;5.97;;;22.50;35.10;;;;;;5050208;28;20443;-60
2021/01/30 00:09:14;;;;;;;9.73;6.05;;;22.50;35.40;;;;;;5047313;28;20401;-65
2021/01/30 00:11:40;;;;;;;7.82;5.85;;;22.50;35.10;;;;;;5049798;28;20398;-60
2021/01/30 00:14:06;;;;;;;8.17;5.23;;;22.40;34.80;;;;;;5050086;28;20523;-61
2021/01/30 00:16:31;;;;;;;7.22;5.05;;;22.40;34.20;;;;;;5049963;28;20393;-60
2021/01/30 00:18:57;;;;;;;9.77;6.43;;;22.40;34.10;;;;;;5049976;28;20413;-60
2021/01/30 00:21:22;;;;;;;10.27;7.13;;;22.40;34.40;;;;;;5049584;28;20896;-60
2021/01/30 00:23:51;;;;;;;9.50;7.47;;;22.40;34.40;;;;;;5049630;28;20498;-61
2021/01/30 00:26:17;;;;;;;10.07;6.75;;;22.40;34.50;;;;;;5047179;28;20948;-61
2021/01/30 00:28:42;;;;;;;9.60;6.90;;;22.40;34.30;;;;;;5050942;28;20490;-60
2021/01/30 00:31:08;;;;;;;9.37;7.30;;;22.40;34.20;;;;;;5051095;28;20421;-60
2021/01/30 00:33:33;;;;;;;8.65;6.32;;;22.40;34.30;;;;;;5050632;28;20403;-62
2021/01/30 00:35:59;;;;;;;8.87;6.50;;;22.40;34.20;;;;;;5050904;28;20394;-60
2021/01/30 00:38:25;;;;;;;8.82;6.20;;;22.30;34.30;;;;;;5050350;28;20425;-60
2021/01/30 00:40:50;;;;;;;8.70;6.40;;;22.30;34.30;;;;;;5053748;28;20400;-60
2021/01/30 00:43:16;;;;;;;8.95;5.97;;;22.30;34.30;;;;;;5054579;28;20956;-64
2021/01/30 00:45:41;;;;;;;9.10;5.95;;;22.30;34.40;;;;;;5054158;28;20899;-61
2021/01/30 00:48:07;;;;;;;8.40;5.90;;;22.30;34.40;;;;;;5054723;28;20476;-60
2021/01/30 00:50:33;;;;;;;7.53;5.68;;;22.30;34.40;;;;;;5054661;28;20389;-60
2021/01/30 00:52:59;;;;;;;6.90;5.37;;;22.30;34.30;;;;;;5054612;28;20393;-60
2021/01/30 00:55:24;;;;;;;6.40;4.90;;;22.30;34.40;;;;;;5054148;28;20753;-60
2021/01/30 00:57:50;;;;;;;6.22;5.03;;;22.30;34.30;;;;;;5054249;28;20425;-60
2021/01/30 01:00:20;;;;;;;6.67;4.90;;;22.20;34.30;;;;;;5054578;28;20396;-60
2021/01/30 01:02:46;;;;;;;6.13;4.82;;;22.20;34.30;;;;;;5054450;28;20396;-60
2021/01/30 01:05:14;;;;;;;5.93;4.55;;;22.20;34.20;;;;;;5054482;28;20381;-60
2021/01/30 01:07:42;;;;;;;6.10;4.57;;;22.30;34.30;;;;;;5053949;28;20396;-60
2021/01/30 01:10:08;;;;;;;5.40;4.27;;;22.20;34.20;;;;;;5054327;28;20476;-60
2021/01/30 01:12:34;;;;;;;5.78;4.32;;;22.20;34.30;;;;;;5054266;28;20401;-60
2021/01/30 01:15:00;;;;;;;5.47;4.10;;;22.20;34.30;;;;;;5054150;28;20456;-60
2021/01/30 01:17:25;;;;;;;5.90;4.00;;;22.20;34.40;;;;;;5053671;28;20392;-61
2021/01/30 01:19:51;;;;;;;5.28;3.90;;;22.20;34.30;;;;;;5054042;28;20428;-60
2021/01/30 01:22:17;;;;;;;5.10;3.63;;;22.20;34.30;;;;;;5054130;28;20385;-60
2021/01/30 01:24:42;;;;;;;4.25;3.45;;;22.20;34.30;;;;;;5053839;28;20818;-60
2021/01/30 01:27:08;;;;;;;5.10;3.43;;;22.20;34.30;;;;;;5053988;28;20391;-60
2021/01/30 01:29:33;;;;;;;4.82;3.65;;;22.10;34.30;;;;;;5053336;28;20477;-60
2021/01/30 01:31:59;;;;;;;4.20;3.30;;;22.10;34.30;;;;;;5053805;28;20480;-60
2021/01/30 01:34:28;;;;;;;3.93;3.40;;;22.20;34.30;;;;;;5053855;28;20476;-60
2021/01/30 01:36:55;;;;;;;4.00;3.30;;;22.20;34.40;;;;;;5035704;28;20400;-60
2021/01/30 01:39:20;;;;;;;4.32;3.40;;;22.20;34.30;;;;;;5053560;28;20393;-60
2021/01/30 01:41:54;;;;;;;3.80;2.80;;;22.10;34.30;;;;;;5052896;28;20794;-60
2021/01/30 01:44:19;;;;;;;3.80;2.90;;;22.10;34.20;;;;;;5053360;28;20390;-60
2021/01/30 01:46:45;;;;;;;3.90;3.10;;;22.10;34.20;;;;;;5053529;28;20396;-60
2021/01/30 01:49:15;;;;;;;3.53;2.70;;;22.10;34.20;;;;;;5053564;28;20392;-60
2021/01/30 01:51:46;;;;;;;3.50;2.85;;;22.10;34.20;;;;;;5034753;28;20447;-60
2021/01/30 01:54:25;;;;;;;3.75;2.80;;;22.10;34.20;;;;;;5053606;28;20398;-60
2021/01/30 01:56:54;;;;;;;3.08;2.60;;;22.10;34.20;;;;;;5053161;28;20463;-60
2021/01/30 01:59:21;;;;;;;3.50;2.53;;;22.10;34.20;;;;;;5053316;28;20389;-61
2021/01/30 02:01:49;;;;;;;3.35;2.40;;;22.10;34.30;;;;;;5053075;28;20385;-60
2021/01/30 02:04:16;;;;;;;2.93;2.10;;;22.00;34.20;;;;;;5053414;28;20385;-60
2021/01/30 02:06:45;;;;;;;3.00;2.20;;;22.10;34.30;;;;;;5053202;28;20385;-60
2021/01/30 02:09:24;;;;;;;3.15;2.25;;;22.00;34.30;;;;;;5053222;28;20417;-60
2021/01/30 02:12:03;;;;;;;2.60;2.10;;;22.00;34.20;;;;;;5052654;28;20382;-61
2021/01/30 02:14:31;;;;;;;2.97;2.40;;;22.00;34.20;;;;;;5053167;28;20873;-60
2021/01/30 02:17:17;;;;;;;2.63;2.10;;;22.00;34.30;;;;;;5053046;28;20455;-60
2021/01/30 02:20:10;;;;;;;3.00;2.10;;;22.00;34.30;;;;;;5051912;28;20444;-60
2021/01/30 02:23:12;;;;;;;2.50;1.80;;;22.00;34.30;;;;;;5052955;28;20390;-60
2021/01/30 02:25:57;;;;;;;2.60;1.83;;;22.00;34.30;;;;;;5052395;28;20515;-60
2021/01/30 02:28:28;;;;;;;2.60;2.10;;;22.00;34.20;;;;;;5052562;28;20389;-60
2021/01/30 02:31:06;;;;;;;2.30;1.70;;;22.00;34.20;;;;;;5052734;28;20950;-60
2021/01/30 02:33:48;;;;;;;2.25;1.65;;;22.00;34.20;;;;;;5052310;28;20393;-60
2021/01/30 02:36:28;;;;;;;2.10;1.60;;;22.00;34.20;;;;;;5052705;28;20412;-60
2021/01/30 02:39:02;;;;;;;2.17;1.60;;;22.00;34.10;;;;;;5052549;28;20474;-60
2021/01/30 02:41:32;;;;;;;2.30;1.63;;;22.00;34.20;;;;;;5052074;28;20929;-61
2021/01/30 02:44:01;;;;;;;2.20;1.60;;;22.00;34.20;;;;;;5052535;28;20428;-60
2021/01/30 02:46:33;;;;;;;2.45;1.60;;;22.00;34.20;;;;;;5052518;28;20390;-60
2021/01/30 02:49:03;;;;;;;2.22;1.48;;;22.00;34.10;;;;;;5034614;28;20762;-60
2021/01/30 02:51:37;;;;;;;1.95;1.60;;;22.00;34.20;;;;;;5051850;28;20468;-60
2021/01/30 02:54:08;;;;;;;1.92;1.50;;;21.90;34.20;;;;;;5052400;28;20385;-60
2021/01/30 02:56:34;;;;;;;2.05;1.42;;;21.90;34.20;;;;;;5034247;28;20488;-60
2021/01/30 02:59:06;;;;;;;1.90;1.30;;;22.00;34.20;;;;;;5052265;28;20504;-61
2021/01/30 03:01:38;;;;;;;2.03;1.25;;;21.90;34.30;;;;;;5051638;28;20741;-60
2021/01/30 03:04:18;;;;;;;1.60;1.20;;;21.90;34.30;;;;;;5051787;28;20397;-60
2021/01/30 03:06:59;;;;;;;1.63;1.27;;;21.90;34.30;;;;;;5052116;28;20985;-60
2021/01/30 03:09:40;;;;;;;1.90;1.38;;;21.90;34.20;;;;;;5051885;28;20451;-61
2021/01/30 03:12:24;;;;;;;1.80;1.23;;;21.90;34.20;;;;;;5052057;28;20869;-60
2021/01/30 03:15:00;;;;;;;2.80;1.20;;;21.90;34.10;;;;;;5051480;28;20439;-60
2021/01/30 03:17:27;;;;;;;1.70;1.10;;;21.90;34.10;;;;;;5051363;28;20473;-60
2021/01/30 03:19:56;;;;;;;1.55;1.15;;;21.80;34.10;;;;;;5051904;28;20396;-60
2021/01/30 03:22:24;;;;;;;1.55;1.10;;;21.80;34.20;;;;;;5051834;28;20893;-60
2021/01/30 03:24:52;;;;;;;1.50;1.02;;;21.80;34.20;;;;;;5051779;28;20394;-60
2021/01/30 03:27:25;;;;;;;1.70;1.10;;;21.80;34.20;;;;;;5051825;28;20390;-60
2021/01/30 03:29:51;;;;;;;1.50;1.02;;;21.80;34.20;;;;;;5051163;28;20396;-60
2021/01/30 03:32:18;;;;;;;1.70;1.00;;;21.80;34.20;;;;;;5051770;28;20386;-60
2021/01/30 03:34:45;;;;;;;1.38;1.00;;;21.80;34.20;;;;;;5051692;28;20799;-60
2021/01/30 03:37:11;;;;;;;1.30;1.00;;;21.80;34.30;;;;;;5051617;28;20563;-60
2021/01/30 03:39:44;;;;;;;1.50;1.00;;;21.80;34.30;;;;;;5051118;28;20504;-60
2021/01/30 03:42:11;;;;;;;1.35;1.00;;;21.80;34.40;;;;;;5051658;28;20393;-60
2021/01/30 03:44:37;;;;;;;1.08;0.80;;;21.80;34.30;;;;;;5051469;28;20394;-60
2021/01/30 03:47:03;;;;;;;1.15;0.70;;;21.80;34.30;;;;;;5051433;28;20933;-59
2021/01/30 03:49:28;;;;;;;1.20;0.90;;;21.80;34.30;;;;;;5051321;28;20520;-60
2021/01/30 03:51:54;;;;;;;1.00;0.70;;;21.80;34.30;;;;;;5051506;28;20472;-60
2021/01/30 03:54:20;;;;;;;1.35;0.80;;;21.80;34.30;;;;;;5051376;28;20390;-60
2021/01/30 03:56:46;;;;;;;0.97;0.63;;;21.80;34.20;;;;;;5051181;28;20405;-60
2021/01/30 03:59:16;;;;;;;1.00;0.80;;;21.80;34.20;;;;;;5051429;28;20417;-60
2021/01/30 04:01:41;;;;;;;1.10;0.77;;;21.80;34.20;;;;;;5050844;28;20382;-60
2021/01/30 04:04:07;;;;;;;1.00;0.70;;;21.80;34.20;;;;;;5033469;28;20493;-60
2021/01/30 04:06:32;;;;;;;1.10;0.70;;;21.80;34.20;;;;;;5051397;28;20400;-60
2021/01/30 04:08:58;;;;;;;1.10;0.68;;;21.80;34.20;;;;;;5051241;28;20416;-60
2021/01/30 04:11:29;;;;;;;1.13;0.80;;;21.80;34.20;;;;;;5051328;28;20396;-60
2021/01/30 04:13:56;;;;;;;1.38;0.55;;;21.80;34.80;;;;;;5052441;28;20941;-60
2021/01/30 04:16:24;;;;;;;1.30;0.63;;;21.80;34.20;;;;;;5055425;28;20463;-60
2021/01/30 04:18:50;;;;;;;1.00;0.60;;;21.70;34.20;;;;;;5037366;28;20988;-60
2021/01/30 04:21:15;;;;;;;1.27;0.60;;;21.80;34.30;;;;;;5055303;28;20472;-60
2021/01/30 04:23:48;;;;;;;0.95;0.60;;;21.70;34.50;;;;;;5054819;28;20401;-60
2021/01/30 04:26:16;;;;;;;0.65;0.55;;;21.80;34.30;;;;;;5055261;28;20389;-60
2021/01/30 04:28:42;;;;;;;0.95;0.60;;;21.80;34.40;;;;;;5055108;28;20476;-60
2021/01/30 04:31:08;;;;;;;1.00;0.60;;;21.80;34.40;;;;;;5054829;28;21071;-60
2021/01/30 04:33:34;;;;;;;0.88;0.50;;;21.80;34.40;;;;;;5054047;28;20910;-60
2021/01/30 04:35:59;;;;;;;1.40;0.70;;;21.80;34.40;;;;;;5054767;28;20394;-61
2021/01/30 04:38:25;;;;;;;0.80;0.53;;;21.80;34.40;;;;;;5054933;28;20923;-60
2021/01/30 04:41:01;;;;;;;0.85;0.57;;;21.80;34.30;;;;;;5054899;28;20382;-60
2021/01/30 04:43:41;;;;;;;0.98;0.50;;;21.70;34.30;;;;;;5054697;28;20389;-62
2021/01/30 04:46:24;;;;;;;1.00;0.40;;;21.70;34.30;;;;;;5054755;28;20389;-60
2021/01/30 04:49:06;;;;;;;0.90;0.50;;;21.70;34.20;;;;;;5054768;28;20374;-60
2021/01/30 04:51:38;;;;;;;0.82;0.50;;;21.70;34.20;;;;;;5054660;28;20397;-60
2021/01/30 04:54:10;;;;;;;0.70;0.50;;;21.70;34.20;;;;;;5054742;28;20435;-60
2021/01/30 04:56:50;;;;;;;0.98;0.50;;;21.70;34.20;;;;;;5054491;28;20810;-61
2021/01/30 04:59:42;;;;;;;0.80;0.50;;;21.70;34.20;;;;;;5054557;28;20483;-60
2021/01/30 05:02:41;;;;;;;1.10;0.50;;;21.70;34.10;;;;;;5054544;28;20927;-60
2021/01/30 05:05:11;;;;;;;0.88;0.43;;;21.70;34.20;;;;;;5054504;28;20393;-61
2021/01/30 05:07:54;;;;;;;0.85;0.43;;;21.70;34.10;;;;;;5054001;28;20382;-62
2021/01/30 05:10:37;;;;;;;0.80;0.50;;;21.70;34.20;;;;;;5054471;28;20862;-60
2021/01/30 05:13:10;;;;;;;1.00;0.50;;;21.70;34.20;;;;;;5054211;28;20389;-62
2021/01/30 05:15:54;;;;;;;0.55;0.40;;;21.70;34.20;;;;;;5053850;28;20396;-61
2021/01/30 05:18:45;;;;;;;0.52;0.32;;;21.60;34.20;;;;;;5054215;28;20409;-61
2021/01/30 05:21:31;;;;;;;0.70;0.40;;;21.70;34.30;;;;;;5054283;28;20925;-60
2021/01/30 05:23:57;;;;;;;0.80;0.40;;;21.60;34.80;;;;;;5053899;28;20448;-61
2021/01/30 05:26:28;;;;;;;0.57;0.30;;;21.60;34.20;;;;;;5053440;28;20381;-60
2021/01/30 05:29:13;;;;;;;0.70;0.40;;;21.70;34.20;;;;;;5054020;28;20439;-60
2021/01/30 05:31:58;;;;;;;0.80;0.30;;;21.60;34.10;;;;;;5053407;28;20431;-61
2021/01/30 05:34:33;;;;;;;0.70;0.40;;;21.60;34.10;;;;;;5053904;28;20388;-60
2021/01/30 05:37:03;;;;;;;0.70;0.40;;;21.60;34.10;;;;;;5053810;28;20432;-60
2021/01/30 05:39:50;;;;;;;0.70;0.40;;;21.60;34.10;;;;;;5053668;28;20519;-61
2021/01/30 05:42:33;;;;;;;0.60;0.40;;;21.60;34.80;;;;;;5035882;28;20396;-60
2021/01/30 05:45:33;;;;;;;0.68;0.40;;;21.60;34.10;;;;;;5053693;28;20411;-60
2021/01/30 05:48:01;;;;;;;0.77;0.35;;;21.60;34.10;;;;;;4952858;29;20402;-60
2021/01/30 05:50:34;;;;;;;0.57;0.38;;;21.70;34.20;;;;;;5033637;28;20488;-60
2021/01/30 05:53:01;;;;;;;0.57;0.30;;;21.70;34.20;;;;;;5035714;28;20378;-60
2021/01/30 05:55:31;;;;;;;0.50;0.30;;;21.60;34.20;;;;;;5035662;28;20404;-60
2021/01/30 05:57:58;;;;;;;0.80;0.40;;;21.60;34.20;;;;;;5052769;28;20409;-60
2021/01/30 06:00:25;;;;;;;0.70;0.40;;;21.60;34.20;;;;;;5053553;28;20869;-60
2021/01/30 06:03:03;;;;;;;0.80;0.30;;;21.60;34.30;;;;;;5053454;28;20392;-60
2021/01/30 06:05:51;;;;;;;1.00;0.40;;;21.60;34.30;;;;;;5053490;28;20394;-60
2021/01/30 06:08:28;;;;;;;0.60;0.30;;;21.60;34.30;;;;;;5053401;28;20374;-60
2021/01/30 06:11:12;;;;;;;0.63;0.33;;;21.60;34.30;;;;;;5053171;28;20891;-60
2021/01/30 06:13:59;;;;;;;0.70;0.30;;;21.60;34.30;;;;;;5052765;28;20400;-60
2021/01/30 06:16:34;;;;;;;0.43;0.30;;;21.60;34.30;;;;;;5053283;28;20743;-60
2021/01/30 06:19:10;;;;;;;0.70;0.40;;;21.60;34.30;;;;;;5052844;28;20405;-60
2021/01/30 06:21:36;;;;;;;0.60;0.35;;;21.60;34.30;;;;;;5052946;28;20400;-62
2021/01/30 06:24:05;;;;;;;0.70;0.30;;;21.60;34.30;;;;;;5053072;28;20865;-60
2021/01/30 06:26:46;;;;;;;0.60;0.30;;;21.60;34.30;;;;;;5053002;28;20378;-60
2021/01/30 06:29:32;;;;;;;0.60;0.30;;;21.60;34.30;;;;;;5052964;28;20469;-60
2021/01/30 06:32:22;;;;;;;0.50;0.30;;;21.60;34.30;;;;;;5052737;28;20491;-60
2021/01/30 06:34:51;;;;;;;0.70;0.30;;;21.50;34.20;;;;;;5052449;28;20393;-60
2021/01/30 06:37:34;;;;;;;0.70;0.40;;;21.60;34.30;;;;;;5051549;28;20931;-60
2021/01/30 06:40:17;;;;;;;0.70;0.30;;;21.60;34.30;;;;;;5052538;28;20425;-60
2021/01/30 06:42:45;;;;;;;0.60;0.40;;;21.50;34.30;;;;;;5052640;28;20473;-60
2021/01/30 06:45:29;;;;;;;0.60;0.30;;;21.50;34.30;;;;;;5052638;28;20425;-60
2021/01/30 06:47:54;;;;;;;0.60;0.30;;;21.50;34.30;;;;;;5052335;28;20377;-60
2021/01/30 06:50:31;;;;;;;1.40;0.30;;;21.50;34.30;;;;;;5052543;28;20446;-60
2021/01/30 06:53:16;;;;;;;0.60;0.30;;;21.50;34.30;;;;;;5052364;28;20382;-60
2021/01/30 06:55:41;;;;;;;0.80;0.50;;;21.50;34.30;;;;;;5051929;28;20432;-60
2021/01/30 06:58:12;;;;;;;0.90;0.30;;;21.50;34.30;;;;;;5052115;28;20453;-60
2021/01/30 07:00:38;;;;;;;0.52;0.30;;;21.50;34.30;;;;;;5052275;28;20382;-60
2021/01/30 07:03:32;;;;;;;0.70;0.40;;;21.50;34.30;;;;;;5052197;28;20917;-60
2021/01/30 07:06:13;;;;;;;0.80;0.43;;;21.50;34.30;;;;;;5051450;28;20386;-60
2021/01/30 07:09:05;;;;;;;0.60;0.40;;;21.50;34.40;;;;;;5051610;28;20938;-60
2021/01/30 07:12:01;;;;;;;0.60;0.40;;;21.50;34.30;;;;;;5005652;28;20477;-60
2021/01/30 07:14:52;;;;;;;0.60;0.40;;;21.50;34.30;;;;;;5052105;28;20377;-60
2021/01/30 07:17:28;;;;;;;0.70;0.40;;;21.50;34.30;;;;;;5051957;28;20397;-60
2021/01/30 07:20:07;;;;;;;0.80;0.40;;;21.50;34.30;;;;;;5051701;28;20398;-60
2021/01/30 07:22:54;;;;;;;0.50;0.40;;;21.50;34.40;;;;;;5034087;28;20476;-60
2021/01/30 07:25:24;;;;;;;0.57;0.30;;;21.50;34.40;;;;;;5051916;28;20382;-60
2021/01/30 07:27:59;;;;;;;1.30;0.40;;;21.50;34.30;;;;;;5051317;28;20394;-60
2021/01/30 07:30:40;;;;;;;1.88;0.40;;;21.40;34.30;;;;;;5051780;28;20479;-60
2021/01/30 07:33:14;;;;;;;3.75;0.52;;;21.40;34.80;;;;;;5051643;28;20448;-60
2021/01/30 07:35:52;;;;;;;3.00;0.60;;;21.30;35.20;;;;;;5033053;28;20746;-61
2021/01/30 07:38:32;;;;;;;1.90;0.50;;;21.40;34.90;;;;;;5051540;28;20821;-58
2021/01/30 07:41:18;;;;;;;2.60;0.60;;;21.40;34.60;;;;;;5051403;28;20394;-62
2021/01/30 07:43:53;;;;;;;1.30;0.50;;;21.40;34.10;;;;;;5031010;28;20395;-61
2021/01/30 07:46:31;;;;;;;3.00;0.50;;;21.40;33.70;;;;;;5031525;28;20379;-61
2021/01/30 07:49:01;;;;;;;3.20;0.67;;;21.40;34.10;;;;;;5031178;28;20478;-61
2021/01/30 07:51:38;;;;;;;1.60;0.50;;;21.40;33.90;;;;;;5030617;28;20445;-61
2021/01/30 07:54:04;;;;;;;1.60;0.40;;;21.40;34.00;;;;;;5031262;28;20383;-61
2021/01/30 07:56:42;;;;;;;1.60;0.60;;;21.40;34.00;;;;;;5031361;28;20795;-62
2021/01/30 07:59:27;;;;;;;1.38;0.50;;;21.40;33.90;;;;;;5030489;28;20481;-61
2021/01/30 08:01:56;;;;;;;1.00;0.40;;;21.40;33.80;;;;;;5030919;28;20406;-61
2021/01/30 08:04:31;;;;;;;1.25;0.68;;;21.40;33.70;;;;;;5032767;28;20553;-61
2021/01/30 08:07:08;;;;;;;1.15;0.50;;;21.50;33.80;;;;;;5032211;28;20419;-60
2021/01/30 08:10:01;;;;;;;2.28;0.50;;;21.40;34.20;;;;;;5040101;28;20472;-60
2021/01/30 08:12:42;;;;;;;2.42;0.60;;;21.40;34.30;;;;;;5048143;28;20411;-60
2021/01/30 08:15:13;;;;;;;2.20;0.60;;;21.30;33.90;;;;;;5020087;28;20481;-62
2021/01/30 08:17:44;;;;;;;1.88;0.60;;;21.30;34.30;;;;;;5049367;28;20412;-63
2021/01/30 08:20:54;;;;;;;1.30;0.63;;;21.20;34.30;;;;;;5049074;28;20401;-61
2021/01/30 08:23:38;;;;;;;3.63;0.80;;;21.30;34.30;;;;;;5047589;28;20401;-61
2021/01/30 08:26:17;;;;;;;2.40;0.70;;;21.30;34.50;;;;;;5050672;28;20392;-61
2021/01/30 08:28:50;;;;;;;4.80;0.80;;;21.20;34.80;;;;;;5032825;28;20397;-61
2021/01/30 08:31:41;;;;;;;4.45;0.70;;;21.20;35.00;;;;;;5051030;28;20385;-61
2021/01/30 08:34:11;;;;;;;6.43;1.08;;;21.30;35.00;;;;;;5050732;28;20385;-61
2021/01/30 08:36:40;;;;;;;2.60;0.80;;;21.30;34.90;;;;;;5050897;28;20381;-61
2021/01/30 08:39:16;;;;;;;2.67;0.77;;;21.30;35.10;;;;;;5050842;28;20478;-61
2021/01/30 08:41:45;;;;;;;3.50;1.00;;;21.20;34.90;;;;;;5049922;28;20465;-62
2021/01/30 08:44:44;;;;;;;2.25;0.80;;;21.20;35.10;;;;;;5051254;28;20396;-62
2021/01/30 08:47:21;;;;;;;3.78;1.00;;;21.20;35.20;;;;;;5050356;28;20456;-62
2021/01/30 08:50:12;;;;;;;3.55;0.95;;;21.20;35.50;;;;;;5050264;28;20396;-62
2021/01/30 08:52:51;;;;;;;3.30;1.00;;;21.30;35.60;;;;;;5043422;28;20402;-63
2021/01/30 08:55:36;;;;;;;3.83;0.90;;;21.30;35.70;;;;;;5050694;28;20401;-62
2021/01/30 08:58:02;;;;;;;4.15;0.85;;;21.30;35.70;;;;;;5049835;28;20426;-62
2021/01/30 09:00:28;;;;;;;2.38;0.82;;;21.30;35.80;;;;;;5051309;28;20386;-62
2021/01/30 09:02:54;;;;;;;1.97;0.80;;;21.30;35.90;;;;;;5054264;28;20405;-61
2021/01/30 09:05:22;;;;;;;2.90;0.75;;;21.30;35.80;;;;;;5054306;28;20885;-62
2021/01/30 09:07:57;;;;;;;2.40;1.00;;;21.20;35.60;;;;;;5052447;28;20498;-62
2021/01/30 09:10:36;;;;;;;2.33;1.20;;;21.30;35.60;;;;;;5036290;28;20409;-62
2021/01/30 09:13:07;;;;;;;2.17;0.90;;;21.20;35.70;;;;;;5052998;28;20385;-62
2021/01/30 09:15:42;;;;;;;3.13;1.30;;;21.20;35.90;;;;;;5053828;28;20397;-62
2021/01/30 09:18:32;;;;;;;5.55;1.70;;;21.20;36.10;;;;;;5053526;28;20405;-62
2021/01/30 09:21:27;;;;;;;7.25;1.25;;;21.20;36.10;;;;;;5053878;28;20396;-62
2021/01/30 09:23:59;;;;;;;4.22;1.70;;;21.20;36.30;;;;;;5053470;28;20476;-62
2021/01/30 09:27:00;;;;;;;3.85;1.50;;;21.30;36.00;;;;;;5053872;28;20401;-62
2021/01/30 09:29:34;;;;;;;4.22;1.33;;;21.40;35.80;;;;;;5040398;28;20463;-62
2021/01/30 09:32:00;;;;;;;4.13;1.40;;;21.40;35.40;;;;;;5053370;28;20815;-62
2021/01/30 09:34:35;;;;;;;4.87;1.20;;;21.40;35.30;;;;;;5053697;28;20401;-63
2021/01/30 09:37:00;;;;;;;2.90;1.40;;;21.40;35.10;;;;;;5053660;28;20397;-63
2021/01/30 09:39:31;;;;;;;5.17;1.40;;;21.50;35.10;;;;;;5053507;28;20905;-62
2021/01/30 09:42:14;;;;;;;3.00;1.30;;;21.60;34.90;;;;;;5053315;28;20377;-63
2021/01/30 09:44:40;;;;;;;4.78;1.52;;;21.60;34.70;;;;;;5035464;28;20398;-63
2021/01/30 09:47:18;;;;;;;3.30;1.20;;;21.60;34.50;;;;;;5053491;28;20476;-62
2021/01/30 09:49:48;;;;;;;2.53;1.30;;;21.70;34.40;;;;;;5053240;28;20393;-63
2021/01/30 09:52:20;;;;;;;2.28;1.20;;;21.60;34.20;;;;;;5053485;28;20386;-62
2021/01/30 09:54:51;;;;;;;2.90;1.40;;;21.60;34.20;;;;;;5053216;28;20889;-62
2021/01/30 09:57:22;;;;;;;2.15;1.30;;;21.60;34.20;;;;;;5053095;28;20409;-62
2021/01/30 09:59:58;;;;;;;2.40;1.27;;;21.70;34.30;;;;;;5052865;28;20401;-62
2021/01/30 10:02:26;;;;;;;2.20;1.20;;;21.70;34.00;;;;;;5053217;28;20386;-62
2021/01/30 10:05:05;;;;;;;2.00;1.17;;;21.70;34.10;;;;;;5053001;28;20385;-62
2021/01/30 10:07:33;;;;;;;2.20;1.10;;;21.70;33.90;;;;;;5053165;28;20392;-62
2021/01/30 10:09:59;;;;;;;2.38;1.20;;;21.80;33.90;;;;;;5052661;28;20389;-62
2021/01/30 10:12:25;;;;;;;2.90;1.20;;;21.80;34.00;;;;;;5052804;28;20734;-62
2021/01/30 10:14:57;;;;;;;2.00;1.20;;;21.90;34.00;;;;;;5052845;28;20472;-62
2021/01/30 10:17:38;;;;;;;3.80;1.20;;;21.90;33.90;;;;;;5053077;28;20389;-62
2021/01/30 10:20:08;;;;;;;2.40;1.20;;;21.90;33.90;;;;;;5052566;28;20389;-64
2021/01/30 10:22:39;;;;;;;2.15;1.10;;;21.90;33.90;;;;;;5052604;28;20402;-63
2021/01/30 10:25:09;;;;;;;2.83;1.13;;;21.90;33.80;;;;;;5052682;28;20446;-62
2021/01/30 10:27:35;;;;;;;1.65;1.02;;;21.90;33.80;;;;;;5051484;28;20385;-63
2021/01/30 10:30:05;;;;;;;1.98;1.10;;;21.90;33.80;;;;;;5050013;28;20393;-63
2021/01/30 10:32:52;;;;;;;1.98;0.90;;;21.90;33.70;;;;;;5052024;28;20439;-63
2021/01/30 10:35:33;;;;;;;2.08;1.02;;;22.00;33.70;;;;;;5032753;28;20401;-62
2021/01/30 10:38:01;;;;;;;1.75;1.02;;;22.00;33.60;;;;;;5032134;28;20918;-62
2021/01/30 10:40:39;;;;;;;2.60;1.00;;;22.00;33.50;;;;;;5031991;28;20406;-63
2021/01/30 10:43:39;;;;;;;2.50;1.00;;;22.00;33.60;;;;;;5032530;28;20450;-62
2021/01/30 10:46:12;;;;;;;1.80;0.90;;;22.00;33.70;;;;;;4999718;28;20740;-62
2021/01/30 10:48:39;;;;;;;2.70;1.10;;;22.00;33.80;;;;;;5032503;28;20383;-62
2021/01/30 10:51:18;;;;;;;3.20;1.00;;;22.00;33.90;;;;;;5021979;28;20602;-63
2021/01/30 10:53:43;;;;;;;2.07;1.00;;;22.00;33.90;;;;;;5045563;28;20406;-61
2021/01/30 10:56:13;;;;;;;2.47;0.95;;;22.00;33.70;;;;;;5048352;28;20396;-61
2021/01/30 10:58:39;;;;;;;1.98;1.05;;;22.10;33.70;;;;;;5048852;28;20543;-61
2021/01/30 11:01:17;;;;;;;2.67;1.10;;;22.10;33.70;;;;;;5048565;28;20396;-61
2021/01/30 11:03:44;;;;;;;2.33;1.00;;;22.10;33.50;;;;;;5048700;28;20400;-60
2021/01/30 11:06:29;;;;;;;2.25;1.02;;;22.00;33.70;;;;;;5048974;28;20896;-61
2021/01/30 11:09:20;;;;;;;2.80;0.90;;;22.00;33.70;;;;;;5050805;28;20385;-61
2021/01/30 11:11:47;;;;;;;2.42;1.10;;;22.10;33.70;;;;;;5051585;28;20428;-61
2021/01/30 11:14:27;;;;;;;2.60;1.00;;;22.10;33.70;;;;;;5051768;28;20436;-61
2021/01/30 11:16:54;;;;;;;2.45;1.02;;;22.20;33.40;;;;;;5051959;28;20496;-61
2021/01/30 11:19:27;;;;;;;1.98;0.90;;;22.20;33.80;;;;;;5044998;28;20494;-62
2021/01/30 11:22:17;;;;;;;2.45;1.05;;;22.20;33.60;;;;;;5033124;28;20383;-62
2021/01/30 11:24:48;;;;;;;2.85;0.93;;;22.20;33.70;;;;;;5032207;28;20972;-61
2021/01/30 11:27:26;;;;;;;3.25;1.00;;;22.70;36.80;;;;;;5032910;28;20391;-63
2021/01/30 11:29:51;;;;;;;5.07;1.30;;;22.90;35.50;;;;;;5031245;28;20431;-62
2021/01/30 11:32:20;;;;;;;3.72;1.00;;;23.00;35.60;;;;;;5031649;28;20441;-62
2021/01/30 11:34:52;;;;;;;3.30;1.03;;;23.10;35.80;;;;;;5030962;28;20872;-62
2021/01/30 11:37:17;;;;;;;3.25;0.88;;;23.10;35.00;;;;;;5031152;28;20921;-61
2021/01/30 11:39:43;;;;;;;4.07;1.03;;;23.10;35.10;;;;;;5031646;28;20395;-61
2021/01/30 11:42:10;;;;;;;3.63;1.02;;;23.20;34.90;;;;;;5031436;28;20478;-62
2021/01/30 11:44:35;;;;;;;2.07;0.97;;;23.20;34.70;;;;;;5013664;28;20405;-62
2021/01/30 11:47:01;;;;;;;3.08;0.90;;;23.20;35.30;;;;;;5041401;28;20478;-63
2021/01/30 11:49:27;;;;;;;2.55;0.82;;;23.30;35.20;;;;;;5051623;28;20397;-61
2021/01/30 11:51:53;;;;;;;3.27;1.13;;;23.20;35.40;;;;;;5050843;28;20489;-62
2021/01/30 11:54:18;;;;;;;4.28;1.30;;;23.30;34.70;;;;;;5051351;28;20791;-62
2021/01/30 11:56:45;;;;;;;6.40;1.30;;;23.30;35.00;;;;;;5029895;28;20414;-61
2021/01/30 11:59:12;;;;;;;4.10;1.50;;;23.40;35.40;;;;;;5030142;28;20495;-61
2021/01/30 12:01:41;;;;;;;5.07;1.30;;;23.40;35.00;;;;;;5030971;28;20473;-61
2021/01/30 12:04:08;;;;;;;5.85;1.65;;;23.50;35.20;;;;;;5030633;28;20410;-62
2021/01/30 12:06:33;;;;;;;6.05;1.60;;;23.50;34.90;;;;;;5011400;28;20388;-61
2021/01/30 12:08:59;;;;;;;3.70;1.60;;;23.50;34.80;;;;;;5011195;28;20535;-61
2021/01/30 12:11:25;;;;;;;4.45;1.63;;;23.50;34.60;;;;;;5011387;28;20749;-61
2021/01/30 12:13:51;;;;;;;7.90;2.00;;;23.50;34.80;;;;;;5010903;28;20399;-61
2021/01/30 12:16:21;;;;;;;9.60;1.90;;;23.40;35.00;;;;;;5009835;28;20502;-62
2021/01/30 12:18:46;;;;;;;11.85;2.00;;;23.40;34.40;;;;;;5011190;28;20428;-61
2021/01/30 12:21:12;;;;;;;9.43;2.10;;;23.40;34.10;;;;;;5011565;28;20389;-61
2021/01/30 12:23:37;;;;;;;9.85;2.10;;;23.40;33.80;;;;;;5011420;28;20784;-61
2021/01/30 12:26:03;;;;;;;6.07;1.67;;;23.40;33.70;;;;;;5010966;28;20931;-61
2021/01/30 12:28:35;;;;;;;5.55;1.75;;;23.30;33.30;;;;;;5011430;28;20442;-61
2021/01/30 12:31:02;;;;;;;5.00;1.75;;;23.20;33.20;;;;;;5011273;28;20945;-61
2021/01/30 12:33:28;;;;;;;5.53;1.75;;;23.20;33.20;;;;;;5011435;28;20405;-61
2021/01/30 12:35:54;;;;;;;4.10;1.60;;;23.20;33.50;;;;;;5013718;28;20741;-62
2021/01/30 12:38:22;;;;;;;7.72;1.63;;;23.10;33.60;;;;;;5015293;28;20773;-61
2021/01/30 12:40:48;;;;;;;6.80;1.60;;;23.00;33.30;;;;;;5015095;28;20496;-61
2021/01/30 12:43:20;;;;;;;5.75;1.60;;;23.00;33.30;;;;;;5015282;28;20385;-61
2021/01/30 12:45:47;;;;;;;5.18;1.60;;;23.00;33.30;;;;;;5015091;28;20403;-61
2021/01/30 12:48:13;;;;;;;7.03;1.40;;;23.00;33.40;;;;;;5014798;28;20389;-60
2021/01/30 12:50:39;;;;;;;5.43;1.60;;;22.90;33.30;;;;;;5014742;28;20408;-61
2021/01/30 12:53:07;;;;;;;4.20;1.50;;;22.90;33.20;;;;;;5015102;28;20879;-62
2021/01/30 12:55:33;;;;;;;3.92;1.50;;;22.90;33.40;;;;;;5014961;28;20892;-61
2021/01/30 12:57:59;;;;;;;6.00;1.60;;;22.80;33.50;;;;;;5044724;28;20425;-61
2021/01/30 13:00:27;;;;;;;5.13;1.40;;;22.80;33.50;;;;;;5054430;28;20434;-63
2021/01/30 13:02:52;;;;;;;4.18;1.50;;;22.80;33.40;;;;;;5054443;28;20455;-60
2021/01/30 13:05:19;;;;;;;4.82;1.40;;;22.80;33.20;;;;;;5054432;28;20464;-61
2021/01/30 13:07:46;;;;;;;3.55;1.40;;;22.80;33.00;;;;;;5054561;28;20539;-61
2021/01/30 13:10:16;;;;;;;4.35;1.30;;;22.80;32.90;;;;;;5053913;28;20928;-64
2021/01/30 13:12:42;;;;;;;3.90;1.30;;;22.70;33.10;;;;;;5054387;28;20397;-61
2021/01/30 13:15:09;;;;;;;5.45;1.40;;;22.70;33.10;;;;;;5054402;28;20429;-61